Airfield :
LOGIN :

Register | Disclaimer

   EN    FR    IT 

 










Legend :    VFR   Marginal VFR   IFR   Intensive IFR   Very Intensive IFR
Visi :
Ceiling :
>= 8 km
>= 3000ft
5 to 8 km
1000 to 3000 ft
1500m to 5 km
500 to 1000 ft
800 to 1500m
200 to 500 ft
< 800m
< 200 ft
Symbols :   Thunderstorms  Fog  Heavy snow  Heavy precipitations  Wind > 20 kt
SIGMETs :     Misc.  Thunderstorms  Icing  Turbulence  Mountain Waves  Volcanic Ashes







- Airport Elevation : 489 ft
- IATA code : GDN


EPGD - Gdansk

CURRENT METAR :
  • 141700Z 25003KT 220V280 9999 FEW008 19/17 Q1009

EXPIRED METARs :
  • 141630Z 26003KT 230V300 9999 SCT008 19/17 Q1009
  • 141600Z 25004KT 200V270 CAVOK 18/17 Q1009
  • 141530Z 29005KT 9999 FEW003 FEW026CB 18/16 Q1008
  • 141500Z 27010KT 6000 -SHRA FEW003 SCT023CB BKN041 17/16 Q1008 RESHRA
  • 141430Z 28018KT 190V300 9999 3800NW -SHRA FEW003 BKN029CB 19/16 Q1008

TAF TAF EPGD
Valid from the 14 at 12:00 until the 15 at 12:00 UTC


141130Z 1412/1512 23005KT CAVOK
TEMPO 1412/1421 4500 SHRA BKN020CB
PROB40 1500/1506 BKN005
BECMG 1506/1508 30010KT
TEMPO 1506/1512 -SHRA BKN025CB
No reported NOTAMs for that airfield.
3 SIGMETs reported for the Warszawa FIR (EPWW) :
 
Embedded thunderstorms
EPWW SIGMET 7 VALID 141440/141840 EPWA
EPWW WARSAW FIR EMBD TS OBS E OF E022 TOP FL400 MOV NNE INTSF=
SIGMET 5  cancelation
EPWW SIGMET 6 VALID 141435/141820 EPWA
EPWW WARSAW FIR CNL SIGMET 5 141620/141820=
SIGMET 5  CANCELED :
Embedded thunderstorms
EPWW SIGMET 5 VALID 141620/141820 EPWA
EPWW WARSAW FIR EMBD TS OBS E OF E022 TOP FL400 MOV NNE INTSF=



MET'MAP, your aeronautical weather chart ! - Copyright ORBIFLY December 2007 - Disclaimer

ORBIFLY MET'MAP TEAM :

Programming & Development : Alexandra Zaïnal
Concept & Development : Baudouin d'Aumeries
Co-Development & Prog : Marc-Olivier Méhu
Technical & hardware support : Manuel Goepfert

Contact : metmap@orbifly.com




SOURCES & CREDITS :

   NOAA